Spiegelgracht — PCEO — position and weather

sailwx.info

Track history (hours):
 
Tides and Currents Weather Stations Pressure Air Temp Water Temp Dewpoint Dewpoint Depression Visibility Wind Speed Wind Dir Waves Ship Positions

Spiegelgracht

Last reported at 2017-Mar-23 16:19 UTC. Time now 2017-Mar-23 23:56 UTC.
Position N 37°03' E 012°12'.

Length 168 m; beam 25 m.

Type: Cargo ship. MMSI: 245789000.

Date/timePositionNaut miles runAvg speedWind from/ knotsBaromVisibWave heightAir tempDewpointWater temp
2017-Mar-23 16:19N 37°03' E 012°12'2217.2
2017-Mar-23 15:04N 36°56' E 012°38'1317.6
2017-Mar-23 14:21N 36°52' E 012°53'1417.5
2017-Mar-23 13:33N 36°48' E 013°09'1817.1
2017-Mar-23 12:30N 36°42' E 013°31'1616.7
2017-Mar-23 11:33N 36°37' E 013°49'1717.0
2017-Mar-23 10:33N 36°31' E 014°09'1717.1
2017-Mar-23 09:33N 36°26' E 014°29'45815.8
2017-Mar-22 04:33N 37°21' E 023°58'1817.7
2017-Mar-22 03:33N 37°36' E 024°09'1717.3
2017-Mar-22 02:33N 37°49' E 024°24'4217.4
2017-Mar-22 00:08N 38°15' E 025°06'1317.2
2017-Mar-21 23:21N 38°22' E 025°20'  
Track history (hours):
 
Tides and Currents Weather Stations Pressure Air Temp Water Temp Dewpoint Dewpoint Depression Visibility Wind Speed Wind Dir Waves Ship Positions

Spiegelgracht

Last reported at 2017-Mar-23 16:19 UTC. Time now 2017-Mar-23 23:56 UTC.
Position N 37°03' E 012°12'.

Length 168 m; beam 25 m.

Type: Cargo ship. MMSI: 245789000.

Date/timePositionNaut miles runAvg speedWind from/ knotsBaromVisibWave heightAir tempDewpointWater temp
2017-Mar-23 16:19N 37°03' E 012°12'2217.2
2017-Mar-23 15:04N 36°56' E 012°38'1317.6
2017-Mar-23 14:21N 36°52' E 012°53'1417.5
2017-Mar-23 13:33N 36°48' E 013°09'1817.1
2017-Mar-23 12:30N 36°42' E 013°31'1616.7
2017-Mar-23 11:33N 36°37' E 013°49'1717.0
2017-Mar-23 10:33N 36°31' E 014°09'1717.1
2017-Mar-23 09:33N 36°26' E 014°29'45815.8
2017-Mar-22 04:33N 37°21' E 023°58'1817.7
2017-Mar-22 03:33N 37°36' E 024°09'1717.3
2017-Mar-22 02:33N 37°49' E 024°24'4217.4
2017-Mar-22 00:08N 38°15' E 025°06'1317.2
2017-Mar-21 23:21N 38°22' E 025°20'  

Dump ship's entire track history